sensor_id;sensor_type;location;lat;lon;timestamp;temperature;humidity
58102;HTU21D;52034;51.926;6.320;2024-03-02T00:00:50;8.23;70.04
58102;HTU21D;52034;51.926;6.320;2024-03-02T00:01:52;8.18;70.28
58102;HTU21D;52034;51.926;6.320;2024-03-02T00:02:54;8.21;69.73
58102;HTU21D;52034;51.926;6.320;2024-03-02T00:03:56;8.16;69.84
58102;HTU21D;52034;51.926;6.320;2024-03-02T00:04:58;8.21;69.50
58102;HTU21D;52034;51.926;6.320;2024-03-02T00:05:59;8.19;70.23
58102;HTU21D;52034;51.926;6.320;2024-03-02T00:07:01;8.20;69.77
58102;HTU21D;52034;51.926;6.320;2024-03-02T00:08:02;8.24;69.56
58102;HTU21D;52034;51.926;6.320;2024-03-02T00:09:06;8.22;69.39
58102;HTU21D;52034;51.926;6.320;2024-03-02T00:10:10;8.24;69.38
58102;HTU21D;52034;51.926;6.320;2024-03-02T00:11:12;8.24;69.78
58102;HTU21D;52034;51.926;6.320;2024-03-02T00:12:16;8.24;69.93
58102;HTU21D;52034;51.926;6.320;2024-03-02T00:13:20;8.26;69.48
58102;HTU21D;52034;51.926;6.320;2024-03-02T00:14:23;8.24;69.16
58102;HTU21D;52034;51.926;6.320;2024-03-02T00:16:36;8.32;69.19
58102;HTU21D;52034;51.926;6.320;2024-03-02T00:17:38;8.38;69.07
58102;HTU21D;52034;51.926;6.320;2024-03-02T00:18:40;8.36;69.20
58102;HTU21D;52034;51.926;6.320;2024-03-02T00:19:41;8.36;68.93
58102;HTU21D;52034;51.926;6.320;2024-03-02T00:20:43;8.42;69.13
58102;HTU21D;52034;51.926;6.320;2024-03-02T00:21:45;8.41;69.26
58102;HTU21D;52034;51.926;6.320;2024-03-02T00:22:47;8.39;69.49
58102;HTU21D;52034;51.926;6.320;2024-03-02T00:23:51;8.39;69.61
58102;HTU21D;52034;51.926;6.320;2024-03-02T00:24:54;8.44;68.71
58102;HTU21D;52034;51.926;6.320;2024-03-02T00:25:56;8.44;68.81
58102;HTU21D;52034;51.926;6.320;2024-03-02T00:26:57;8.46;68.87
58102;HTU21D;52034;51.926;6.320;2024-03-02T00:27:59;8.48;68.80
58102;HTU21D;52034;51.926;6.320;2024-03-02T00:29:01;8.45;68.71
58102;HTU21D;52034;51.926;6.320;2024-03-02T00:30:06;8.47;68.34
58102;HTU21D;52034;51.926;6.320;2024-03-02T00:31:08;8.45;68.71
58102;HTU21D;52034;51.926;6.320;2024-03-02T00:32:13;8.39;68.88
58102;HTU21D;52034;51.926;6.320;2024-03-02T00:33:17;8.41;69.26
58102;HTU21D;52034;51.926;6.320;2024-03-02T00:34:19;8.37;69.08
58102;HTU21D;52034;51.926;6.320;2024-03-02T00:35:21;8.41;68.51
58102;HTU21D;52034;51.926;6.320;2024-03-02T00:36:25;8.41;68.61
58102;HTU21D;52034;51.926;6.320;2024-03-02T00:37:27;8.38;68.63
58102;HTU21D;52034;51.926;6.320;2024-03-02T00:38:30;8.41;68.62
58102;HTU21D;52034;51.926;6.320;2024-03-02T00:39:31;8.41;68.56
58102;HTU21D;52034;51.926;6.320;2024-03-02T00:40:33;8.42;69.05
58102;HTU21D;52034;51.926;6.320;2024-03-02T00:41:35;8.36;68.96
58102;HTU21D;52034;51.926;6.320;2024-03-02T00:42:37;8.42;68.94
58102;HTU21D;52034;51.926;6.320;2024-03-02T00:43:43;8.37;68.46
58102;HTU21D;52034;51.926;6.320;2024-03-02T00:44:47;8.41;68.96
58102;HTU21D;52034;51.926;6.320;2024-03-02T00:45:49;8.37;68.79
58102;HTU21D;52034;51.926;6.320;2024-03-02T00:46:50;8.33;68.97
58102;HTU21D;52034;51.926;6.320;2024-03-02T00:47:52;8.35;69.39
58102;HTU21D;52034;51.926;6.320;2024-03-02T00:48:55;8.35;69.31
58102;HTU21D;52034;51.926;6.320;2024-03-02T00:49:57;8.31;69.22
58102;HTU21D;52034;51.926;6.320;2024-03-02T00:50:58;8.32;69.22
58102;HTU21D;52034;51.926;6.320;2024-03-02T00:52:00;8.38;68.85
58102;HTU21D;52034;51.926;6.320;2024-03-02T00:53:02;8.37;69.53
58102;HTU21D;52034;51.926;6.320;2024-03-02T00:54:04;8.38;69.51
58102;HTU21D;52034;51.926;6.320;2024-03-02T00:55:06;8.43;68.77
58102;HTU21D;52034;51.926;6.320;2024-03-02T00:56:09;8.47;69.10
58102;HTU21D;52034;51.926;6.320;2024-03-02T00:57:11;8.45;69.07
58102;HTU21D;52034;51.926;6.320;2024-03-02T00:58:13;8.46;69.26
58102;HTU21D;52034;51.926;6.320;2024-03-02T00:59:15;8.51;68.55
58102;HTU21D;52034;51.926;6.320;2024-03-02T01:00:17;8.53;68.97
58102;HTU21D;52034;51.926;6.320;2024-03-02T01:01:19;8.53;68.46
58102;HTU21D;52034;51.926;6.320;2024-03-02T01:02:21;8.51;68.76
58102;HTU21D;52034;51.926;6.320;2024-03-02T01:03:23;8.55;68.87
58102;HTU21D;52034;51.926;6.320;2024-03-02T01:04:25;8.56;68.54
58102;HTU21D;52034;51.926;6.320;2024-03-02T01:05:27;8.58;68.55
58102;HTU21D;52034;51.926;6.320;2024-03-02T01:06:30;8.56;68.62
58102;HTU21D;52034;51.926;6.320;2024-03-02T01:07:31;8.59;68.01
58102;HTU21D;52034;51.926;6.320;2024-03-02T01:08:36;8.63;68.31
58102;HTU21D;52034;51.926;6.320;2024-03-02T01:09:38;8.63;67.91
58102;HTU21D;52034;51.926;6.320;2024-03-02T01:10:39;8.68;68.38
58102;HTU21D;52034;51.926;6.320;2024-03-02T01:11:41;8.66;67.95
58102;HTU21D;52034;51.926;6.320;2024-03-02T01:12:43;8.70;68.36
58102;HTU21D;52034;51.926;6.320;2024-03-02T01:13:45;8.67;68.22
58102;HTU21D;52034;51.926;6.320;2024-03-02T01:14:47;8.71;68.52
58102;HTU21D;52034;51.926;6.320;2024-03-02T01:15:49;8.73;67.84
58102;HTU21D;52034;51.926;6.320;2024-03-02T01:16:51;8.78;67.56
58102;HTU21D;52034;51.926;6.320;2024-03-02T01:17:53;8.76;68.17
58102;HTU21D;52034;51.926;6.320;2024-03-02T01:18:56;8.75;67.76
58102;HTU21D;52034;51.926;6.320;2024-03-02T01:19:58;8.76;68.29
58102;HTU21D;52034;51.926;6.320;2024-03-02T01:20:59;8.75;68.33
58102;HTU21D;52034;51.926;6.320;2024-03-02T01:22:01;8.75;68.07
58102;HTU21D;52034;51.926;6.320;2024-03-02T01:23:03;8.73;67.88
58102;HTU21D;52034;51.926;6.320;2024-03-02T01:24:04;8.72;68.36
58102;HTU21D;52034;51.926;6.320;2024-03-02T01:25:06;8.76;68.28
58102;HTU21D;52034;51.926;6.320;2024-03-02T01:26:10;8.72;68.38
58102;HTU21D;52034;51.926;6.320;2024-03-02T01:27:11;8.71;68.50
58102;HTU21D;52034;51.926;6.320;2024-03-02T01:28:13;8.75;68.33
58102;HTU21D;52034;51.926;6.320;2024-03-02T01:29:15;8.77;68.78
58102;HTU21D;52034;51.926;6.320;2024-03-02T01:30:17;8.72;68.67
58102;HTU21D;52034;51.926;6.320;2024-03-02T01:31:18;8.73;69.20
58102;HTU21D;52034;51.926;6.320;2024-03-02T01:32:20;8.75;68.58
58102;HTU21D;52034;51.926;6.320;2024-03-02T01:33:21;8.68;69.00
58102;HTU21D;52034;51.926;6.320;2024-03-02T01:34:23;8.71;69.19
58102;HTU21D;52034;51.926;6.320;2024-03-02T01:35:25;8.71;68.94
58102;HTU21D;52034;51.926;6.320;2024-03-02T01:36:28;8.68;68.75
58102;HTU21D;52034;51.926;6.320;2024-03-02T01:37:29;8.68;69.20
58102;HTU21D;52034;51.926;6.320;2024-03-02T01:38:31;8.70;69.31
58102;HTU21D;52034;51.926;6.320;2024-03-02T01:39:33;8.71;68.94
58102;HTU21D;52034;51.926;6.320;2024-03-02T01:40:35;8.70;69.19
58102;HTU21D;52034;51.926;6.320;2024-03-02T01:41:36;8.71;69.08
58102;HTU21D;52034;51.926;6.320;2024-03-02T01:42:38;8.71;69.53
58102;HTU21D;52034;51.926;6.320;2024-03-02T01:43:40;8.67;69.51
58102;HTU21D;52034;51.926;6.320;2024-03-02T01:44:42;8.67;69.74
58102;HTU21D;52034;51.926;6.320;2024-03-02T01:45:44;8.67;69.69
58102;HTU21D;52034;51.926;6.320;2024-03-02T01:46:46;8.70;69.49
58102;HTU21D;52034;51.926;6.320;2024-03-02T01:47:47;8.64;69.97
58102;HTU21D;52034;51.926;6.320;2024-03-02T01:48:49;8.65;69.87
58102;HTU21D;52034;51.926;6.320;2024-03-02T01:49:51;8.66;70.08
58102;HTU21D;52034;51.926;6.320;2024-03-02T01:50:52;8.63;71.15
58102;HTU21D;52034;51.926;6.320;2024-03-02T01:51:54;8.60;70.41
58102;HTU21D;52034;51.926;6.320;2024-03-02T01:52:56;8.59;70.33
58102;HTU21D;52034;51.926;6.320;2024-03-02T01:53:57;8.61;70.23
58102;HTU21D;52034;51.926;6.320;2024-03-02T01:54:59;8.63;70.19
58102;HTU21D;52034;51.926;6.320;2024-03-02T01:56:01;8.62;70.82
58102;HTU21D;52034;51.926;6.320;2024-03-02T01:57:03;8.65;70.32
58102;HTU21D;52034;51.926;6.320;2024-03-02T01:58:04;8.63;70.55
58102;HTU21D;52034;51.926;6.320;2024-03-02T01:59:06;8.56;70.77
58102;HTU21D;52034;51.926;6.320;2024-03-02T02:00:08;8.64;71.13
58102;HTU21D;52034;51.926;6.320;2024-03-02T02:01:13;8.61;70.92
58102;HTU21D;52034;51.926;6.320;2024-03-02T02:02:15;8.67;70.56
58102;HTU21D;52034;51.926;6.320;2024-03-02T02:03:17;8.66;71.29
58102;HTU21D;52034;51.926;6.320;2024-03-02T02:04:18;8.72;71.31
58102;HTU21D;52034;51.926;6.320;2024-03-02T02:05:23;8.72;71.41
58102;HTU21D;52034;51.926;6.320;2024-03-02T02:06:24;8.73;71.19
58102;HTU21D;52034;51.926;6.320;2024-03-02T02:07:26;8.74;71.14
58102;HTU21D;52034;51.926;6.320;2024-03-02T02:08:28;8.68;71.19
58102;HTU21D;52034;51.926;6.320;2024-03-02T02:09:29;8.64;72.15
58102;HTU21D;52034;51.926;6.320;2024-03-02T02:10:31;8.65;71.64
58102;HTU21D;52034;51.926;6.320;2024-03-02T02:11:32;8.62;71.38
58102;HTU21D;52034;51.926;6.320;2024-03-02T02:12:34;8.66;71.85
58102;HTU21D;52034;51.926;6.320;2024-03-02T02:13:36;8.67;71.46
58102;HTU21D;52034;51.926;6.320;2024-03-02T02:14:37;8.65;71.67
58102;HTU21D;52034;51.926;6.320;2024-03-02T02:15:41;8.64;72.31
58102;HTU21D;52034;51.926;6.320;2024-03-02T02:16:42;8.64;72.06
58102;HTU21D;52034;51.926;6.320;2024-03-02T02:17:44;8.63;72.72
58102;HTU21D;52034;51.926;6.320;2024-03-02T02:18:45;8.59;72.01
58102;HTU21D;52034;51.926;6.320;2024-03-02T02:19:47;8.61;72.13
58102;HTU21D;52034;51.926;6.320;2024-03-02T02:20:49;8.52;71.80
58102;HTU21D;52034;51.926;6.320;2024-03-02T02:21:50;8.57;71.64
58102;HTU21D;52034;51.926;6.320;2024-03-02T02:23:56;8.62;71.88
58102;HTU21D;52034;51.926;6.320;2024-03-02T02:24:58;8.57;72.70
58102;HTU21D;52034;51.926;6.320;2024-03-02T02:26:00;8.61;72.82
58102;HTU21D;52034;51.926;6.320;2024-03-02T02:27:01;8.59;72.12
58102;HTU21D;52034;51.926;6.320;2024-03-02T02:28:03;8.56;72.19
58102;HTU21D;52034;51.926;6.320;2024-03-02T02:29:05;8.55;72.87
58102;HTU21D;52034;51.926;6.320;2024-03-02T02:30:07;8.56;72.69
58102;HTU21D;52034;51.926;6.320;2024-03-02T02:31:09;8.57;73.36
58102;HTU21D;52034;51.926;6.320;2024-03-02T02:32:10;8.57;72.90
58102;HTU21D;52034;51.926;6.320;2024-03-02T02:33:12;8.58;72.50
58102;HTU21D;52034;51.926;6.320;2024-03-02T02:34:14;8.62;73.00
58102;HTU21D;52034;51.926;6.320;2024-03-02T02:35:16;8.57;72.86
58102;HTU21D;52034;51.926;6.320;2024-03-02T02:36:18;8.57;73.48
58102;HTU21D;52034;51.926;6.320;2024-03-02T02:37:19;8.52;73.73
58102;HTU21D;52034;51.926;6.320;2024-03-02T02:38:21;8.50;73.05
58102;HTU21D;52034;51.926;6.320;2024-03-02T02:39:22;8.53;72.70
58102;HTU21D;52034;51.926;6.320;2024-03-02T02:40:24;8.47;73.09
58102;HTU21D;52034;51.926;6.320;2024-03-02T02:41:26;8.50;72.83
58102;HTU21D;52034;51.926;6.320;2024-03-02T02:42:27;8.52;73.67
58102;HTU21D;52034;51.926;6.320;2024-03-02T02:43:29;8.50;73.07
58102;HTU21D;52034;51.926;6.320;2024-03-02T02:44:30;8.44;72.71
58102;HTU21D;52034;51.926;6.320;2024-03-02T02:45:32;8.43;74.11
58102;HTU21D;52034;51.926;6.320;2024-03-02T02:46:34;8.45;73.44
58102;HTU21D;52034;51.926;6.320;2024-03-02T02:47:35;8.45;73.54
58102;HTU21D;52034;51.926;6.320;2024-03-02T02:48:37;8.46;73.61
58102;HTU21D;52034;51.926;6.320;2024-03-02T02:49:38;8.45;73.89
58102;HTU21D;52034;51.926;6.320;2024-03-02T02:50:41;8.45;73.64
58102;HTU21D;52034;51.926;6.320;2024-03-02T02:51:42;8.45;73.86
58102;HTU21D;52034;51.926;6.320;2024-03-02T02:52:44;8.46;74.03
58102;HTU21D;52034;51.926;6.320;2024-03-02T02:53:46;8.44;74.33
58102;HTU21D;52034;51.926;6.320;2024-03-02T02:54:47;8.43;74.51
58102;HTU21D;52034;51.926;6.320;2024-03-02T02:55:49;8.38;74.85
58102;HTU21D;52034;51.926;6.320;2024-03-02T02:56:50;8.41;74.32
58102;HTU21D;52034;51.926;6.320;2024-03-02T02:57:52;8.41;74.28
58102;HTU21D;52034;51.926;6.320;2024-03-02T02:58:53;8.38;74.99
58102;HTU21D;52034;51.926;6.320;2024-03-02T02:59:55;8.38;74.92
58102;HTU21D;52034;51.926;6.320;2024-03-02T03:00:56;8.36;74.73
58102;HTU21D;52034;51.926;6.320;2024-03-02T03:01:58;8.37;74.56
58102;HTU21D;52034;51.926;6.320;2024-03-02T03:03:00;8.37;74.52
58102;HTU21D;52034;51.926;6.320;2024-03-02T03:04:02;8.34;74.83
58102;HTU21D;52034;51.926;6.320;2024-03-02T03:05:03;8.35;74.67
58102;HTU21D;52034;51.926;6.320;2024-03-02T03:06:05;8.37;74.58
58102;HTU21D;52034;51.926;6.320;2024-03-02T03:07:07;8.37;74.67
58102;HTU21D;52034;51.926;6.320;2024-03-02T03:08:08;8.34;74.98
58102;HTU21D;52034;51.926;6.320;2024-03-02T03:09:10;8.29;74.67
58102;HTU21D;52034;51.926;6.320;2024-03-02T03:10:12;8.31;74.80
58102;HTU21D;52034;51.926;6.320;2024-03-02T03:11:15;8.36;74.58
58102;HTU21D;52034;51.926;6.320;2024-03-02T03:12:16;8.34;74.78
58102;HTU21D;52034;51.926;6.320;2024-03-02T03:13:18;8.35;74.54
58102;HTU21D;52034;51.926;6.320;2024-03-02T03:14:19;8.34;74.57
58102;HTU21D;52034;51.926;6.320;2024-03-02T03:15:21;8.34;75.04
58102;HTU21D;52034;51.926;6.320;2024-03-02T03:16:23;8.35;74.43
58102;HTU21D;52034;51.926;6.320;2024-03-02T03:17:24;8.32;74.34
58102;HTU21D;52034;51.926;6.320;2024-03-02T03:18:26;8.29;74.45
58102;HTU21D;52034;51.926;6.320;2024-03-02T03:19:28;8.31;75.24
58102;HTU21D;52034;51.926;6.320;2024-03-02T03:20:30;8.32;75.22
58102;HTU21D;52034;51.926;6.320;2024-03-02T03:21:32;8.33;75.28
58102;HTU21D;52034;51.926;6.320;2024-03-02T03:22:33;8.32;75.16
58102;HTU21D;52034;51.926;6.320;2024-03-02T03:23:36;8.29;75.32
58102;HTU21D;52034;51.926;6.320;2024-03-02T03:24:38;8.33;75.09
58102;HTU21D;52034;51.926;6.320;2024-03-02T03:25:40;8.29;74.76
58102;HTU21D;52034;51.926;6.320;2024-03-02T03:26:41;8.23;75.18
58102;HTU21D;52034;51.926;6.320;2024-03-02T03:27:43;8.22;75.28
58102;HTU21D;52034;51.926;6.320;2024-03-02T03:28:45;8.23;75.26
58102;HTU21D;52034;51.926;6.320;2024-03-02T03:29:46;8.20;75.12
58102;HTU21D;52034;51.926;6.320;2024-03-02T03:30:48;8.20;75.92
58102;HTU21D;52034;51.926;6.320;2024-03-02T03:31:49;8.21;75.50
58102;HTU21D;52034;51.926;6.320;2024-03-02T03:32:51;8.22;75.64
58102;HTU21D;52034;51.926;6.320;2024-03-02T03:33:53;8.27;75.72
58102;HTU21D;52034;51.926;6.320;2024-03-02T03:34:54;8.26;75.44
58102;HTU21D;52034;51.926;6.320;2024-03-02T03:35:56;8.20;75.33
58102;HTU21D;52034;51.926;6.320;2024-03-02T03:36:57;8.23;75.53
58102;HTU21D;52034;51.926;6.320;2024-03-02T03:37:59;8.21;75.43
58102;HTU21D;52034;51.926;6.320;2024-03-02T03:39:01;8.23;75.82
58102;HTU21D;52034;51.926;6.320;2024-03-02T03:40:04;8.28;75.39
58102;HTU21D;52034;51.926;6.320;2024-03-02T03:41:12;8.28;75.59
58102;HTU21D;52034;51.926;6.320;2024-03-02T03:42:14;8.28;75.89
58102;HTU21D;52034;51.926;6.320;2024-03-02T03:43:16;8.26;75.89
58102;HTU21D;52034;51.926;6.320;2024-03-02T03:44:17;8.20;75.57
58102;HTU21D;52034;51.926;6.320;2024-03-02T03:45:19;8.27;75.81
58102;HTU21D;52034;51.926;6.320;2024-03-02T03:46:21;8.21;75.94
58102;HTU21D;52034;51.926;6.320;2024-03-02T03:47:22;8.21;75.87
58102;HTU21D;52034;51.926;6.320;2024-03-02T03:48:24;8.18;76.26
58102;HTU21D;52034;51.926;6.320;2024-03-02T03:49:32;8.21;75.91
58102;HTU21D;52034;51.926;6.320;2024-03-02T03:50:33;8.18;76.02
58102;HTU21D;52034;51.926;6.320;2024-03-02T03:51:35;8.14;75.39
58102;HTU21D;52034;51.926;6.320;2024-03-02T03:52:37;8.16;75.14
58102;HTU21D;52034;51.926;6.320;2024-03-02T03:53:38;8.15;75.89
58102;HTU21D;52034;51.926;6.320;2024-03-02T03:54:40;8.17;75.74
58102;HTU21D;52034;51.926;6.320;2024-03-02T03:55:44;8.18;75.99
58102;HTU21D;52034;51.926;6.320;2024-03-02T03:56:48;8.16;75.79
58102;HTU21D;52034;51.926;6.320;2024-03-02T03:57:49;8.19;75.13
58102;HTU21D;52034;51.926;6.320;2024-03-02T03:58:51;8.19;75.44
58102;HTU21D;52034;51.926;6.320;2024-03-02T03:59:53;8.17;75.67
58102;HTU21D;52034;51.926;6.320;2024-03-02T04:00:55;8.13;75.62
58102;HTU21D;52034;51.926;6.320;2024-03-02T04:01:57;8.15;75.59
58102;HTU21D;52034;51.926;6.320;2024-03-02T04:02:58;8.17;75.57
58102;HTU21D;52034;51.926;6.320;2024-03-02T04:04:00;8.18;75.90
58102;HTU21D;52034;51.926;6.320;2024-03-02T04:05:03;8.12;76.02
58102;HTU21D;52034;51.926;6.320;2024-03-02T04:06:10;8.14;76.12
58102;HTU21D;52034;51.926;6.320;2024-03-02T04:07:11;8.18;75.53
58102;HTU21D;52034;51.926;6.320;2024-03-02T04:08:13;8.16;75.04
58102;HTU21D;52034;51.926;6.320;2024-03-02T04:09:14;8.13;75.30
58102;HTU21D;52034;51.926;6.320;2024-03-02T04:10:16;8.19;75.73
58102;HTU21D;52034;51.926;6.320;2024-03-02T04:11:18;8.17;75.66
58102;HTU21D;52034;51.926;6.320;2024-03-02T04:12:20;8.15;75.33
58102;HTU21D;52034;51.926;6.320;2024-03-02T04:13:21;8.18;75.50
58102;HTU21D;52034;51.926;6.320;2024-03-02T04:14:23;8.19;75.32
58102;HTU21D;52034;51.926;6.320;2024-03-02T04:15:24;8.20;75.47
58102;HTU21D;52034;51.926;6.320;2024-03-02T04:16:26;8.17;75.18
58102;HTU21D;52034;51.926;6.320;2024-03-02T04:17:28;8.14;75.92
58102;HTU21D;52034;51.926;6.320;2024-03-02T04:18:29;8.09;76.03
58102;HTU21D;52034;51.926;6.320;2024-03-02T04:19:31;8.13;76.23
58102;HTU21D;52034;51.926;6.320;2024-03-02T04:20:33;8.08;75.67
58102;HTU21D;52034;51.926;6.320;2024-03-02T04:21:34;8.07;75.72
58102;HTU21D;52034;51.926;6.320;2024-03-02T04:22:36;8.04;76.14
58102;HTU21D;52034;51.926;6.320;2024-03-02T04:23:38;7.99;75.50
58102;HTU21D;52034;51.926;6.320;2024-03-02T04:24:39;8.02;76.05
58102;HTU21D;52034;51.926;6.320;2024-03-02T04:25:41;8.01;76.46
58102;HTU21D;52034;51.926;6.320;2024-03-02T04:26:42;8.00;75.94
58102;HTU21D;52034;51.926;6.320;2024-03-02T04:27:44;7.93;76.02
58102;HTU21D;52034;51.926;6.320;2024-03-02T04:28:45;7.90;76.50
58102;HTU21D;52034;51.926;6.320;2024-03-02T04:29:47;7.86;76.02
58102;HTU21D;52034;51.926;6.320;2024-03-02T04:30:49;7.82;76.28
58102;HTU21D;52034;51.926;6.320;2024-03-02T04:31:51;7.89;75.99
58102;HTU21D;52034;51.926;6.320;2024-03-02T04:32:52;7.87;76.37
58102;HTU21D;52034;51.926;6.320;2024-03-02T04:33:54;7.86;76.44
58102;HTU21D;52034;51.926;6.320;2024-03-02T04:34:55;7.85;76.14
58102;HTU21D;52034;51.926;6.320;2024-03-02T04:35:57;7.84;76.77
58102;HTU21D;52034;51.926;6.320;2024-03-02T04:36:59;7.82;76.86
58102;HTU21D;52034;51.926;6.320;2024-03-02T04:38:00;7.87;76.01
58102;HTU21D;52034;51.926;6.320;2024-03-02T04:39:02;7.86;75.90
58102;HTU21D;52034;51.926;6.320;2024-03-02T04:40:04;7.88;76.60
58102;HTU21D;52034;51.926;6.320;2024-03-02T04:41:09;7.86;75.60
58102;HTU21D;52034;51.926;6.320;2024-03-02T04:42:11;7.81;75.79
58102;HTU21D;52034;51.926;6.320;2024-03-02T04:43:12;7.83;76.41
58102;HTU21D;52034;51.926;6.320;2024-03-02T04:44:17;7.82;76.20
58102;HTU21D;52034;51.926;6.320;2024-03-02T04:45:19;7.76;76.45
58102;HTU21D;52034;51.926;6.320;2024-03-02T04:46:21;7.76;76.41
58102;HTU21D;52034;51.926;6.320;2024-03-02T04:47:22;7.74;77.13
58102;HTU21D;52034;51.926;6.320;2024-03-02T04:48:24;7.70;77.15
58102;HTU21D;52034;51.926;6.320;2024-03-02T04:49:26;7.68;76.73
58102;HTU21D;52034;51.926;6.320;2024-03-02T04:50:28;7.64;76.89
58102;HTU21D;52034;51.926;6.320;2024-03-02T04:51:29;7.63;77.29
58102;HTU21D;52034;51.926;6.320;2024-03-02T04:52:31;7.67;77.46
58102;HTU21D;52034;51.926;6.320;2024-03-02T04:53:33;7.63;77.27
58102;HTU21D;52034;51.926;6.320;2024-03-02T04:54:34;7.63;77.37
58102;HTU21D;52034;51.926;6.320;2024-03-02T04:55:56;7.59;77.71
58102;HTU21D;52034;51.926;6.320;2024-03-02T04:57:29;7.60;77.27
58102;HTU21D;52034;51.926;6.320;2024-03-02T04:58:30;7.61;77.84
58102;HTU21D;52034;51.926;6.320;2024-03-02T04:59:32;7.62;76.89
58102;HTU21D;52034;51.926;6.320;2024-03-02T05:00:34;7.61;76.78
58102;HTU21D;52034;51.926;6.320;2024-03-02T05:01:35;7.58;76.91
58102;HTU21D;52034;51.926;6.320;2024-03-02T05:02:37;7.60;77.40
58102;HTU21D;52034;51.926;6.320;2024-03-02T05:03:39;7.55;76.81
58102;HTU21D;52034;51.926;6.320;2024-03-02T05:04:40;7.59;77.63
58102;HTU21D;52034;51.926;6.320;2024-03-02T05:05:43;7.62;77.20
58102;HTU21D;52034;51.926;6.320;2024-03-02T05:06:45;7.59;77.21
58102;HTU21D;52034;51.926;6.320;2024-03-02T05:07:54;7.61;76.15
58102;HTU21D;52034;51.926;6.320;2024-03-02T05:08:55;7.59;76.34
58102;HTU21D;52034;51.926;6.320;2024-03-02T05:09:58;7.63;76.77
58102;HTU21D;52034;51.926;6.320;2024-03-02T05:11:00;7.62;76.51
58102;HTU21D;52034;51.926;6.320;2024-03-02T05:12:21;7.72;76.08
58102;HTU21D;52034;51.926;6.320;2024-03-02T05:13:42;7.73;76.21
58102;HTU21D;52034;51.926;6.320;2024-03-02T05:14:44;7.74;76.22
58102;HTU21D;52034;51.926;6.320;2024-03-02T05:15:45;7.75;76.57
58102;HTU21D;52034;51.926;6.320;2024-03-02T05:16:48;7.77;76.24
58102;HTU21D;52034;51.926;6.320;2024-03-02T05:17:49;7.73;75.51
58102;HTU21D;52034;51.926;6.320;2024-03-02T05:18:51;7.73;76.23
58102;HTU21D;52034;51.926;6.320;2024-03-02T05:19:53;7.76;75.75
58102;HTU21D;52034;51.926;6.320;2024-03-02T05:20:54;7.74;76.65
58102;HTU21D;52034;51.926;6.320;2024-03-02T05:21:56;7.77;76.45
58102;HTU21D;52034;51.926;6.320;2024-03-02T05:22:58;7.70;76.59
58102;HTU21D;52034;51.926;6.320;2024-03-02T05:23:59;7.69;76.76
58102;HTU21D;52034;51.926;6.320;2024-03-02T05:25:02;7.74;77.05
58102;HTU21D;52034;51.926;6.320;2024-03-02T05:26:03;7.83;76.74
58102;HTU21D;52034;51.926;6.320;2024-03-02T05:27:05;7.74;76.41
58102;HTU21D;52034;51.926;6.320;2024-03-02T05:28:07;7.77;76.88
58102;HTU21D;52034;51.926;6.320;2024-03-02T05:29:09;7.68;76.73
58102;HTU21D;52034;51.926;6.320;2024-03-02T05:30:11;7.65;77.02
58102;HTU21D;52034;51.926;6.320;2024-03-02T05:31:14;7.59;76.57
58102;HTU21D;52034;51.926;6.320;2024-03-02T05:32:16;7.56;76.75
58102;HTU21D;52034;51.926;6.320;2024-03-02T05:33:17;7.52;77.67
58102;HTU21D;52034;51.926;6.320;2024-03-02T05:34:19;7.57;76.98
58102;HTU21D;52034;51.926;6.320;2024-03-02T05:35:21;7.54;77.08
58102;HTU21D;52034;51.926;6.320;2024-03-02T05:36:22;7.53;77.09
58102;HTU21D;52034;51.926;6.320;2024-03-02T05:37:24;7.50;77.50
58102;HTU21D;52034;51.926;6.320;2024-03-02T05:38:25;7.46;77.74
58102;HTU21D;52034;51.926;6.320;2024-03-02T05:39:27;7.43;77.73
58102;HTU21D;52034;51.926;6.320;2024-03-02T05:40:29;7.45;77.45
58102;HTU21D;52034;51.926;6.320;2024-03-02T05:41:30;7.45;77.60
58102;HTU21D;52034;51.926;6.320;2024-03-02T05:42:32;7.42;77.18
58102;HTU21D;52034;51.926;6.320;2024-03-02T05:43:34;7.46;77.40
58102;HTU21D;52034;51.926;6.320;2024-03-02T05:44:36;7.46;77.19
58102;HTU21D;52034;51.926;6.320;2024-03-02T05:45:37;7.41;76.84
58102;HTU21D;52034;51.926;6.320;2024-03-02T05:46:39;7.45;76.79
58102;HTU21D;52034;51.926;6.320;2024-03-02T05:47:41;7.43;77.22
58102;HTU21D;52034;51.926;6.320;2024-03-02T05:48:43;7.43;76.69
58102;HTU21D;52034;51.926;6.320;2024-03-02T05:49:45;7.45;77.56
58102;HTU21D;52034;51.926;6.320;2024-03-02T05:50:46;7.46;76.71
58102;HTU21D;52034;51.926;6.320;2024-03-02T05:51:48;7.47;77.02
58102;HTU21D;52034;51.926;6.320;2024-03-02T05:52:49;7.50;77.92
58102;HTU21D;52034;51.926;6.320;2024-03-02T05:53:51;7.53;76.81
58102;HTU21D;52034;51.926;6.320;2024-03-02T05:54:52;7.46;76.92
58102;HTU21D;52034;51.926;6.320;2024-03-02T05:55:54;7.59;77.61
58102;HTU21D;52034;51.926;6.320;2024-03-02T05:56:57;7.55;77.63
58102;HTU21D;52034;51.926;6.320;2024-03-02T05:57:58;7.52;77.07
58102;HTU21D;52034;51.926;6.320;2024-03-02T05:59:00;7.54;77.32
58102;HTU21D;52034;51.926;6.320;2024-03-02T06:00:18;7.57;77.08
58102;HTU21D;52034;51.926;6.320;2024-03-02T06:01:20;7.59;76.79
58102;HTU21D;52034;51.926;6.320;2024-03-02T06:02:21;7.54;77.32
58102;HTU21D;52034;51.926;6.320;2024-03-02T06:03:23;7.55;77.18
58102;HTU21D;52034;51.926;6.320;2024-03-02T06:04:25;7.52;77.03
58102;HTU21D;52034;51.926;6.320;2024-03-02T06:05:26;7.54;77.04
58102;HTU21D;52034;51.926;6.320;2024-03-02T06:06:28;7.55;77.16
58102;HTU21D;52034;51.926;6.320;2024-03-02T06:07:30;7.50;76.83
58102;HTU21D;52034;51.926;6.320;2024-03-02T06:08:31;7.53;76.88
58102;HTU21D;52034;51.926;6.320;2024-03-02T06:09:33;7.54;76.70
58102;HTU21D;52034;51.926;6.320;2024-03-02T06:10:34;7.49;76.66
58102;HTU21D;52034;51.926;6.320;2024-03-02T06:11:39;7.52;76.88
58102;HTU21D;52034;51.926;6.320;2024-03-02T06:12:41;7.53;77.44
58102;HTU21D;52034;51.926;6.320;2024-03-02T06:13:43;7.46;77.34
58102;HTU21D;52034;51.926;6.320;2024-03-02T06:14:44;7.46;77.49
58102;HTU21D;52034;51.926;6.320;2024-03-02T06:15:46;7.44;77.53
58102;HTU21D;52034;51.926;6.320;2024-03-02T06:16:47;7.41;77.28
58102;HTU21D;52034;51.926;6.320;2024-03-02T06:17:49;7.42;77.57
58102;HTU21D;52034;51.926;6.320;2024-03-02T06:18:50;7.42;77.30
58102;HTU21D;52034;51.926;6.320;2024-03-02T06:19:52;7.38;77.47
58102;HTU21D;52034;51.926;6.320;2024-03-02T06:20:54;7.38;77.73
58102;HTU21D;52034;51.926;6.320;2024-03-02T06:21:56;7.30;78.05
58102;HTU21D;52034;51.926;6.320;2024-03-02T06:22:57;7.27;77.78
58102;HTU21D;52034;51.926;6.320;2024-03-02T06:23:59;7.26;77.71
58102;HTU21D;52034;51.926;6.320;2024-03-02T06:25:00;7.25;77.64
58102;HTU21D;52034;51.926;6.320;2024-03-02T06:26:02;7.26;77.50
58102;HTU21D;52034;51.926;6.320;2024-03-02T06:27:05;7.19;77.57
58102;HTU21D;52034;51.926;6.320;2024-03-02T06:28:06;7.23;77.40
58102;HTU21D;52034;51.926;6.320;2024-03-02T06:29:08;7.26;77.49
58102;HTU21D;52034;51.926;6.320;2024-03-02T06:30:10;7.20;77.38
58102;HTU21D;52034;51.926;6.320;2024-03-02T06:31:12;7.22;77.60
58102;HTU21D;52034;51.926;6.320;2024-03-02T06:32:14;7.16;77.57
58102;HTU21D;52034;51.926;6.320;2024-03-02T06:33:15;7.14;77.72
58102;HTU21D;52034;51.926;6.320;2024-03-02T06:34:17;7.13;77.60
58102;HTU21D;52034;51.926;6.320;2024-03-02T06:35:19;7.10;77.76